sensor_id;sensor_type;location;lat;lon;timestamp;P1;durP1;ratioP1;P2;durP2;ratioP2
14203;SDS011;7185;51.854;6.622;2023-04-24T00:01:35;7.38;;;4.15;;
14203;SDS011;7185;51.854;6.622;2023-04-24T00:04:09;6.90;;;3.75;;
14203;SDS011;7185;51.854;6.622;2023-04-24T00:06:44;5.43;;;3.60;;
14203;SDS011;7185;51.854;6.622;2023-04-24T00:09:19;6.00;;;3.20;;
14203;SDS011;7185;51.854;6.622;2023-04-24T00:11:52;4.70;;;3.20;;
14203;SDS011;7185;51.854;6.622;2023-04-24T00:14:24;4.90;;;2.72;;
14203;SDS011;7185;51.854;6.622;2023-04-24T00:16:56;5.40;;;3.25;;
14203;SDS011;7185;51.854;6.622;2023-04-24T00:19:27;3.83;;;2.80;;
14203;SDS011;7185;51.854;6.622;2023-04-24T00:21:59;3.53;;;2.15;;
14203;SDS011;7185;51.854;6.622;2023-04-24T00:24:31;3.40;;;1.60;;
14203;SDS011;7185;51.854;6.622;2023-04-24T00:27:04;5.72;;;1.75;;
14203;SDS011;7185;51.854;6.622;2023-04-24T00:29:35;1.95;;;1.38;;
14203;SDS011;7185;51.854;6.622;2023-04-24T00:32:07;2.50;;;1.50;;
14203;SDS011;7185;51.854;6.622;2023-04-24T00:34:38;2.70;;;1.35;;
14203;SDS011;7185;51.854;6.622;2023-04-24T00:37:10;2.40;;;1.60;;
14203;SDS011;7185;51.854;6.622;2023-04-24T00:39:42;3.10;;;1.42;;
14203;SDS011;7185;51.854;6.622;2023-04-24T00:42:21;2.55;;;1.50;;
14203;SDS011;7185;51.854;6.622;2023-04-24T00:44:53;2.70;;;1.67;;
14203;SDS011;7185;51.854;6.622;2023-04-24T00:47:25;3.22;;;2.10;;
14203;SDS011;7185;51.854;6.622;2023-04-24T00:49:56;4.78;;;2.58;;
14203;SDS011;7185;51.854;6.622;2023-04-24T00:52:28;6.70;;;4.50;;
14203;SDS011;7185;51.854;6.622;2023-04-24T00:55:01;8.55;;;5.43;;
14203;SDS011;7185;51.854;6.622;2023-04-24T00:57:35;10.50;;;6.10;;
14203;SDS011;7185;51.854;6.622;2023-04-24T01:00:07;10.73;;;6.00;;
14203;SDS011;7185;51.854;6.622;2023-04-24T01:02:42;12.05;;;7.05;;
14203;SDS011;7185;51.854;6.622;2023-04-24T01:05:16;12.05;;;7.13;;
14203;SDS011;7185;51.854;6.622;2023-04-24T01:07:49;10.68;;;7.10;;
14203;SDS011;7185;51.854;6.622;2023-04-24T01:10:20;13.10;;;7.55;;
14203;SDS011;7185;51.854;6.622;2023-04-24T01:12:55;15.57;;;8.48;;
14203;SDS011;7185;51.854;6.622;2023-04-24T01:15:26;11.55;;;7.45;;
14203;SDS011;7185;51.854;6.622;2023-04-24T01:17:58;12.57;;;8.23;;
14203;SDS011;7185;51.854;6.622;2023-04-24T01:20:30;13.40;;;8.18;;
14203;SDS011;7185;51.854;6.622;2023-04-24T01:23:04;12.40;;;8.20;;
14203;SDS011;7185;51.854;6.622;2023-04-24T01:25:36;11.73;;;8.27;;
14203;SDS011;7185;51.854;6.622;2023-04-24T01:28:08;12.38;;;8.75;;
14203;SDS011;7185;51.854;6.622;2023-04-24T01:30:47;12.60;;;8.32;;
14203;SDS011;7185;51.854;6.622;2023-04-24T01:33:22;15.23;;;8.98;;
14203;SDS011;7185;51.854;6.622;2023-04-24T01:35:53;14.65;;;8.38;;
14203;SDS011;7185;51.854;6.622;2023-04-24T01:38:29;12.80;;;7.78;;
14203;SDS011;7185;51.854;6.622;2023-04-24T01:41:00;14.15;;;8.80;;
14203;SDS011;7185;51.854;6.622;2023-04-24T01:43:32;14.10;;;7.88;;
14203;SDS011;7185;51.854;6.622;2023-04-24T01:46:10;15.05;;;7.97;;
14203;SDS011;7185;51.854;6.622;2023-04-24T01:48:42;13.57;;;8.45;;
14203;SDS011;7185;51.854;6.622;2023-04-24T01:51:15;11.52;;;8.32;;
14203;SDS011;7185;51.854;6.622;2023-04-24T01:53:48;14.25;;;8.73;;
14203;SDS011;7185;51.854;6.622;2023-04-24T01:56:20;19.85;;;9.32;;
14203;SDS011;7185;51.854;6.622;2023-04-24T01:58:53;18.75;;;8.80;;
14203;SDS011;7185;51.854;6.622;2023-04-24T02:01:25;15.38;;;9.07;;
14203;SDS011;7185;51.854;6.622;2023-04-24T02:03:59;13.80;;;9.00;;
14203;SDS011;7185;51.854;6.622;2023-04-24T02:06:31;15.88;;;8.73;;
14203;SDS011;7185;51.854;6.622;2023-04-24T02:09:04;15.13;;;9.27;;
14203;SDS011;7185;51.854;6.622;2023-04-24T02:11:36;15.40;;;9.73;;
14203;SDS011;7185;51.854;6.622;2023-04-24T02:14:08;17.20;;;9.95;;
14203;SDS011;7185;51.854;6.622;2023-04-24T02:16:39;19.60;;;10.98;;
14203;SDS011;7185;51.854;6.622;2023-04-24T02:19:11;19.08;;;10.25;;
14203;SDS011;7185;51.854;6.622;2023-04-24T02:21:43;19.77;;;11.40;;
14203;SDS011;7185;51.854;6.622;2023-04-24T02:24:15;18.08;;;10.30;;
14203;SDS011;7185;51.854;6.622;2023-04-24T02:26:47;18.70;;;11.00;;
14203;SDS011;7185;51.854;6.622;2023-04-24T02:29:19;17.48;;;9.88;;
14203;SDS011;7185;51.854;6.622;2023-04-24T02:31:53;16.95;;;10.60;;
14203;SDS011;7185;51.854;6.622;2023-04-24T02:34:25;20.33;;;10.45;;
14203;SDS011;7185;51.854;6.622;2023-04-24T02:36:56;19.58;;;11.07;;
14203;SDS011;7185;51.854;6.622;2023-04-24T02:39:29;21.63;;;12.32;;
14203;SDS011;7185;51.854;6.622;2023-04-24T02:42:04;22.40;;;11.30;;
14203;SDS011;7185;51.854;6.622;2023-04-24T02:44:35;20.17;;;12.32;;
14203;SDS011;7185;51.854;6.622;2023-04-24T02:47:07;22.83;;;13.02;;
14203;SDS011;7185;51.854;6.622;2023-04-24T02:49:39;19.45;;;11.93;;
14203;SDS011;7185;51.854;6.622;2023-04-24T02:52:13;25.65;;;12.30;;
14203;SDS011;7185;51.854;6.622;2023-04-24T02:54:48;22.98;;;12.55;;
14203;SDS011;7185;51.854;6.622;2023-04-24T02:57:20;25.17;;;13.07;;
14203;SDS011;7185;51.854;6.622;2023-04-24T02:59:52;28.00;;;14.00;;
14203;SDS011;7185;51.854;6.622;2023-04-24T03:02:24;26.58;;;13.95;;
14203;SDS011;7185;51.854;6.622;2023-04-24T03:04:55;29.33;;;15.13;;
14203;SDS011;7185;51.854;6.622;2023-04-24T03:07:28;28.73;;;14.18;;
14203;SDS011;7185;51.854;6.622;2023-04-24T03:10:03;27.42;;;15.15;;
14203;SDS011;7185;51.854;6.622;2023-04-24T03:12:35;32.10;;;16.40;;
14203;SDS011;7185;51.854;6.622;2023-04-24T03:15:07;29.23;;;16.58;;
14203;SDS011;7185;51.854;6.622;2023-04-24T03:17:40;26.70;;;15.85;;
14203;SDS011;7185;51.854;6.622;2023-04-24T03:20:12;33.28;;;16.30;;
14203;SDS011;7185;51.854;6.622;2023-04-24T03:22:44;28.15;;;15.75;;
14203;SDS011;7185;51.854;6.622;2023-04-24T03:25:17;27.15;;;15.15;;
14203;SDS011;7185;51.854;6.622;2023-04-24T03:27:54;27.55;;;16.08;;
14203;SDS011;7185;51.854;6.622;2023-04-24T03:30:27;30.45;;;17.13;;
14203;SDS011;7185;51.854;6.622;2023-04-24T03:32:59;31.02;;;17.02;;
14203;SDS011;7185;51.854;6.622;2023-04-24T03:35:30;27.27;;;17.15;;
14203;SDS011;7185;51.854;6.622;2023-04-24T03:38:02;29.83;;;17.60;;
14203;SDS011;7185;51.854;6.622;2023-04-24T03:40:36;31.35;;;18.38;;
14203;SDS011;7185;51.854;6.622;2023-04-24T03:43:07;28.27;;;17.92;;
14203;SDS011;7185;51.854;6.622;2023-04-24T03:45:39;31.75;;;18.13;;
14203;SDS011;7185;51.854;6.622;2023-04-24T03:48:10;37.10;;;18.40;;
14203;SDS011;7185;51.854;6.622;2023-04-24T03:50:42;32.38;;;18.65;;
14203;SDS011;7185;51.854;6.622;2023-04-24T03:53:13;31.00;;;17.83;;
14203;SDS011;7185;51.854;6.622;2023-04-24T03:55:46;29.58;;;17.98;;
14203;SDS011;7185;51.854;6.622;2023-04-24T03:58:18;37.08;;;19.15;;
14203;SDS011;7185;51.854;6.622;2023-04-24T04:00:50;31.52;;;18.75;;
14203;SDS011;7185;51.854;6.622;2023-04-24T04:03:22;38.42;;;18.75;;
14203;SDS011;7185;51.854;6.622;2023-04-24T04:05:53;30.80;;;18.45;;
14203;SDS011;7185;51.854;6.622;2023-04-24T04:08:25;33.50;;;19.60;;
14203;SDS011;7185;51.854;6.622;2023-04-24T04:10:58;35.35;;;19.25;;
14203;SDS011;7185;51.854;6.622;2023-04-24T04:13:29;35.15;;;19.15;;
14203;SDS011;7185;51.854;6.622;2023-04-24T04:16:01;31.35;;;17.95;;
14203;SDS011;7185;51.854;6.622;2023-04-24T04:18:33;32.20;;;19.50;;
14203;SDS011;7185;51.854;6.622;2023-04-24T04:21:04;32.65;;;18.70;;
14203;SDS011;7185;51.854;6.622;2023-04-24T04:23:36;36.42;;;18.45;;
14203;SDS011;7185;51.854;6.622;2023-04-24T04:26:10;36.20;;;19.02;;
14203;SDS011;7185;51.854;6.622;2023-04-24T04:28:42;36.33;;;19.10;;
14203;SDS011;7185;51.854;6.622;2023-04-24T04:31:14;31.88;;;17.92;;
14203;SDS011;7185;51.854;6.622;2023-04-24T04:33:46;35.65;;;18.88;;
14203;SDS011;7185;51.854;6.622;2023-04-24T04:36:18;33.13;;;18.38;;
14203;SDS011;7185;51.854;6.622;2023-04-24T04:38:49;28.58;;;17.13;;
14203;SDS011;7185;51.854;6.622;2023-04-24T04:41:22;27.00;;;16.65;;
14203;SDS011;7185;51.854;6.622;2023-04-24T04:43:54;34.38;;;19.60;;
14203;SDS011;7185;51.854;6.622;2023-04-24T04:46:28;29.40;;;17.70;;
14203;SDS011;7185;51.854;6.622;2023-04-24T04:49:02;30.45;;;18.42;;
14203;SDS011;7185;51.854;6.622;2023-04-24T04:51:34;29.98;;;16.65;;
14203;SDS011;7185;51.854;6.622;2023-04-24T04:54:05;30.73;;;16.98;;
14203;SDS011;7185;51.854;6.622;2023-04-24T04:56:39;30.38;;;17.38;;
14203;SDS011;7185;51.854;6.622;2023-04-24T04:59:10;29.80;;;17.30;;
14203;SDS011;7185;51.854;6.622;2023-04-24T05:01:42;31.33;;;17.33;;
14203;SDS011;7185;51.854;6.622;2023-04-24T05:04:13;27.58;;;16.67;;
14203;SDS011;7185;51.854;6.622;2023-04-24T05:06:45;31.15;;;16.45;;
14203;SDS011;7185;51.854;6.622;2023-04-24T05:09:17;32.63;;;17.23;;
14203;SDS011;7185;51.854;6.622;2023-04-24T05:11:50;35.10;;;16.98;;
14203;SDS011;7185;51.854;6.622;2023-04-24T05:14:21;29.65;;;17.25;;
14203;SDS011;7185;51.854;6.622;2023-04-24T05:16:53;29.63;;;17.45;;
14203;SDS011;7185;51.854;6.622;2023-04-24T05:19:25;28.50;;;17.27;;
14203;SDS011;7185;51.854;6.622;2023-04-24T05:21:56;28.92;;;17.05;;
14203;SDS011;7185;51.854;6.622;2023-04-24T05:24:28;29.40;;;17.63;;
14203;SDS011;7185;51.854;6.622;2023-04-24T05:27:01;28.58;;;16.73;;
14203;SDS011;7185;51.854;6.622;2023-04-24T05:29:34;29.00;;;16.20;;
14203;SDS011;7185;51.854;6.622;2023-04-24T05:32:10;34.53;;;15.80;;
14203;SDS011;7185;51.854;6.622;2023-04-24T05:34:42;30.73;;;16.58;;
14203;SDS011;7185;51.854;6.622;2023-04-24T05:37:13;27.00;;;15.60;;
14203;SDS011;7185;51.854;6.622;2023-04-24T05:39:45;25.55;;;14.13;;
14203;SDS011;7185;51.854;6.622;2023-04-24T05:42:18;26.38;;;15.27;;
14203;SDS011;7185;51.854;6.622;2023-04-24T05:44:53;30.20;;;15.43;;
14203;SDS011;7185;51.854;6.622;2023-04-24T05:47:24;27.83;;;15.52;;
14203;SDS011;7185;51.854;6.622;2023-04-24T05:49:56;30.63;;;15.10;;
14203;SDS011;7185;51.854;6.622;2023-04-24T05:52:28;24.55;;;14.23;;
14203;SDS011;7185;51.854;6.622;2023-04-24T05:54:59;23.65;;;13.90;;
14203;SDS011;7185;51.854;6.622;2023-04-24T05:57:32;26.88;;;14.68;;
14203;SDS011;7185;51.854;6.622;2023-04-24T06:00:05;26.92;;;14.65;;
14203;SDS011;7185;51.854;6.622;2023-04-24T06:02:38;24.52;;;14.77;;
14203;SDS011;7185;51.854;6.622;2023-04-24T06:05:09;22.20;;;13.43;;
14203;SDS011;7185;51.854;6.622;2023-04-24T06:07:41;21.58;;;12.40;;
14203;SDS011;7185;51.854;6.622;2023-04-24T06:10:13;20.90;;;12.80;;
14203;SDS011;7185;51.854;6.622;2023-04-24T06:12:46;19.83;;;11.98;;
14203;SDS011;7185;51.854;6.622;2023-04-24T06:15:18;19.55;;;11.40;;
14203;SDS011;7185;51.854;6.622;2023-04-24T06:17:49;18.25;;;11.82;;
14203;SDS011;7185;51.854;6.622;2023-04-24T06:20:21;17.45;;;10.90;;
14203;SDS011;7185;51.854;6.622;2023-04-24T06:22:53;19.27;;;11.90;;
14203;SDS011;7185;51.854;6.622;2023-04-24T06:25:25;18.75;;;11.40;;
14203;SDS011;7185;51.854;6.622;2023-04-24T06:27:59;22.38;;;11.65;;
14203;SDS011;7185;51.854;6.622;2023-04-24T06:30:30;15.20;;;10.18;;
14203;SDS011;7185;51.854;6.622;2023-04-24T06:33:02;20.58;;;10.95;;
14203;SDS011;7185;51.854;6.622;2023-04-24T06:35:33;16.02;;;10.40;;
14203;SDS011;7185;51.854;6.622;2023-04-24T06:38:05;17.25;;;10.60;;
14203;SDS011;7185;51.854;6.622;2023-04-24T06:40:37;18.70;;;11.20;;
14203;SDS011;7185;51.854;6.622;2023-04-24T06:43:10;15.45;;;9.68;;
14203;SDS011;7185;51.854;6.622;2023-04-24T06:45:41;16.25;;;10.43;;
14203;SDS011;7185;51.854;6.622;2023-04-24T06:48:14;15.82;;;10.43;;
14203;SDS011;7185;51.854;6.622;2023-04-24T06:50:46;16.60;;;10.23;;
14203;SDS011;7185;51.854;6.622;2023-04-24T06:53:18;15.20;;;9.90;;
14203;SDS011;7185;51.854;6.622;2023-04-24T06:55:50;15.85;;;9.93;;
14203;SDS011;7185;51.854;6.622;2023-04-24T06:58:23;15.95;;;10.43;;
14203;SDS011;7185;51.854;6.622;2023-04-24T07:00:56;17.27;;;9.65;;
14203;SDS011;7185;51.854;6.622;2023-04-24T07:03:27;19.05;;;9.70;;
14203;SDS011;7185;51.854;6.622;2023-04-24T07:05:59;16.65;;;10.52;;
14203;SDS011;7185;51.854;6.622;2023-04-24T07:08:30;17.77;;;9.65;;
14203;SDS011;7185;51.854;6.622;2023-04-24T07:11:03;14.38;;;9.80;;
14203;SDS011;7185;51.854;6.622;2023-04-24T07:13:36;16.50;;;10.07;;
14203;SDS011;7185;51.854;6.622;2023-04-24T07:18:43;19.67;;;9.38;;
14203;SDS011;7185;51.854;6.622;2023-04-24T07:21:15;16.80;;;10.07;;
14203;SDS011;7185;51.854;6.622;2023-04-24T07:23:46;14.88;;;9.27;;
14203;SDS011;7185;51.854;6.622;2023-04-24T07:26:18;15.82;;;9.38;;
14203;SDS011;7185;51.854;6.622;2023-04-24T07:28:52;14.63;;;9.40;;
14203;SDS011;7185;51.854;6.622;2023-04-24T07:31:23;12.30;;;8.25;;
14203;SDS011;7185;51.854;6.622;2023-04-24T07:33:55;13.57;;;8.40;;
14203;SDS011;7185;51.854;6.622;2023-04-24T07:36:28;9.88;;;7.20;;
14203;SDS011;7185;51.854;6.622;2023-04-24T07:38:59;10.25;;;6.63;;
14203;SDS011;7185;51.854;6.622;2023-04-24T07:41:31;8.05;;;5.45;;
14203;SDS011;7185;51.854;6.622;2023-04-24T07:44:04;8.07;;;4.47;;
14203;SDS011;7185;51.854;6.622;2023-04-24T07:46:36;8.05;;;4.88;;
14203;SDS011;7185;51.854;6.622;2023-04-24T07:49:07;9.35;;;4.03;;
14203;SDS011;7185;51.854;6.622;2023-04-24T07:51:39;7.25;;;3.70;;
14203;SDS011;7185;51.854;6.622;2023-04-24T07:54:11;6.72;;;4.20;;
14203;SDS011;7185;51.854;6.622;2023-04-24T07:56:43;5.80;;;3.67;;
14203;SDS011;7185;51.854;6.622;2023-04-24T07:59:16;4.85;;;3.42;;
14203;SDS011;7185;51.854;6.622;2023-04-24T08:01:47;4.80;;;3.28;;
14203;SDS011;7185;51.854;6.622;2023-04-24T08:04:19;4.88;;;3.40;;
14203;SDS011;7185;51.854;6.622;2023-04-24T08:06:51;5.10;;;3.30;;
14203;SDS011;7185;51.854;6.622;2023-04-24T08:09:23;6.97;;;3.65;;
14203;SDS011;7185;51.854;6.622;2023-04-24T08:11:54;7.00;;;3.88;;
14203;SDS011;7185;51.854;6.622;2023-04-24T08:14:27;7.03;;;3.65;;
14203;SDS011;7185;51.854;6.622;2023-04-24T08:16:59;7.40;;;4.40;;
14203;SDS011;7185;51.854;6.622;2023-04-24T08:19:31;7.25;;;4.60;;
14203;SDS011;7185;51.854;6.622;2023-04-24T08:22:02;7.15;;;4.32;;
14203;SDS011;7185;51.854;6.622;2023-04-24T08:24:35;8.38;;;4.72;;
14203;SDS011;7185;51.854;6.622;2023-04-24T08:27:06;8.55;;;4.82;;
14203;SDS011;7185;51.854;6.622;2023-04-24T08:29:39;7.60;;;4.97;;
14203;SDS011;7185;51.854;6.622;2023-04-24T08:32:11;7.97;;;4.72;;
14203;SDS011;7185;51.854;6.622;2023-04-24T08:34:42;7.75;;;4.80;;
14203;SDS011;7185;51.854;6.622;2023-04-24T08:37:14;8.38;;;4.65;;
14203;SDS011;7185;51.854;6.622;2023-04-24T08:39:46;10.23;;;4.93;;
14203;SDS011;7185;51.854;6.622;2023-04-24T08:42:18;8.43;;;5.18;;
14203;SDS011;7185;51.854;6.622;2023-04-24T08:44:52;9.52;;;5.18;;
14203;SDS011;7185;51.854;6.622;2023-04-24T08:47:25;10.55;;;5.35;;
14203;SDS011;7185;51.854;6.622;2023-04-24T08:49:58;8.18;;;5.45;;
14203;SDS011;7185;51.854;6.622;2023-04-24T08:52:32;9.25;;;5.32;;
14203;SDS011;7185;51.854;6.622;2023-04-24T08:55:05;8.95;;;5.00;;
14203;SDS011;7185;51.854;6.622;2023-04-24T08:57:37;7.38;;;4.22;;
14203;SDS011;7185;51.854;6.622;2023-04-24T09:00:12;4.90;;;2.97;;
14203;SDS011;7185;51.854;6.622;2023-04-24T09:02:44;6.05;;;2.58;;
14203;SDS011;7185;51.854;6.622;2023-04-24T09:05:20;4.03;;;2.33;;
14203;SDS011;7185;51.854;6.622;2023-04-24T09:07:54;4.75;;;2.75;;
14203;SDS011;7185;51.854;6.622;2023-04-24T09:10:27;9.70;;;4.40;;
14203;SDS011;7185;51.854;6.622;2023-04-24T09:13:00;9.93;;;6.20;;
14203;SDS011;7185;51.854;6.622;2023-04-24T09:15:34;13.95;;;7.82;;
14203;SDS011;7185;51.854;6.622;2023-04-24T09:18:06;16.85;;;9.27;;
14203;SDS011;7185;51.854;6.622;2023-04-24T09:23:31;15.93;;;8.68;;
14203;SDS011;7185;51.854;6.622;2023-04-24T09:26:03;14.82;;;8.70;;
14203;SDS011;7185;51.854;6.622;2023-04-24T09:28:36;14.50;;;8.35;;
14203;SDS011;7185;51.854;6.622;2023-04-24T09:31:13;19.80;;;8.10;;
14203;SDS011;7185;51.854;6.622;2023-04-24T09:33:53;17.58;;;8.80;;
14203;SDS011;7185;51.854;6.622;2023-04-24T09:36:29;12.82;;;8.20;;
14203;SDS011;7185;51.854;6.622;2023-04-24T09:39:03;17.05;;;8.38;;
14203;SDS011;7185;51.854;6.622;2023-04-24T09:41:35;16.33;;;8.32;;
14203;SDS011;7185;51.854;6.622;2023-04-24T09:44:15;15.63;;;8.80;;
14203;SDS011;7185;51.854;6.622;2023-04-24T09:46:52;14.95;;;8.30;;
14203;SDS011;7185;51.854;6.622;2023-04-24T09:49:25;16.63;;;8.32;;
14203;SDS011;7185;51.854;6.622;2023-04-24T09:52:02;14.20;;;8.20;;
14203;SDS011;7185;51.854;6.622;2023-04-24T09:54:34;14.05;;;8.25;;
14203;SDS011;7185;51.854;6.622;2023-04-24T09:57:07;13.27;;;7.75;;
14203;SDS011;7185;51.854;6.622;2023-04-24T09:59:41;13.85;;;8.02;;
14203;SDS011;7185;51.854;6.622;2023-04-24T10:02:19;16.88;;;9.20;;
14203;SDS011;7185;51.854;6.622;2023-04-24T10:04:54;14.48;;;8.27;;
14203;SDS011;7185;51.854;6.622;2023-04-24T10:07:29;14.10;;;7.50;;
14203;SDS011;7185;51.854;6.622;2023-04-24T10:10:03;12.02;;;7.00;;
14203;SDS011;7185;51.854;6.622;2023-04-24T10:12:36;12.60;;;6.55;;
14203;SDS011;7185;51.854;6.622;2023-04-24T10:15:09;12.90;;;6.30;;
14203;SDS011;7185;51.854;6.622;2023-04-24T10:17:44;11.27;;;5.25;;
14203;SDS011;7185;51.854;6.622;2023-04-24T10:20:22;13.65;;;5.18;;
14203;SDS011;7185;51.854;6.622;2023-04-24T10:22:55;15.93;;;5.25;;
14203;SDS011;7185;51.854;6.622;2023-04-24T10:25:28;11.50;;;4.70;;
14203;SDS011;7185;51.854;6.622;2023-04-24T10:28:02;8.52;;;4.43;;
14203;SDS011;7185;51.854;6.622;2023-04-24T10:30:34;15.23;;;5.10;;
14203;SDS011;7185;51.854;6.622;2023-04-24T10:33:07;15.80;;;4.60;;
14203;SDS011;7185;51.854;6.622;2023-04-24T10:35:40;14.75;;;4.35;;
14203;SDS011;7185;51.854;6.622;2023-04-24T10:38:17;14.57;;;4.82;;
14203;SDS011;7185;51.854;6.622;2023-04-24T10:40:57;12.95;;;4.53;;
14203;SDS011;7185;51.854;6.622;2023-04-24T10:43:37;17.50;;;4.70;;
14203;SDS011;7185;51.854;6.622;2023-04-24T10:46:11;13.75;;;4.85;;
14203;SDS011;7185;51.854;6.622;2023-04-24T10:48:53;10.18;;;4.32;;
14203;SDS011;7185;51.854;6.622;2023-04-24T10:51:42;10.68;;;4.50;;
14203;SDS011;7185;51.854;6.622;2023-04-24T10:54:22;13.10;;;4.88;;
14203;SDS011;7185;51.854;6.622;2023-04-24T11:00:14;16.45;;;4.00;;
14203;SDS011;7185;51.854;6.622;2023-04-24T11:02:49;12.18;;;3.80;;
14203;SDS011;7185;51.854;6.622;2023-04-24T11:08:27;6.60;;;3.30;;
14203;SDS011;7185;51.854;6.622;2023-04-24T11:11:01;14.27;;;4.00;;
14203;SDS011;7185;51.854;6.622;2023-04-24T11:16:14;10.70;;;3.67;;
14203;SDS011;7185;51.854;6.622;2023-04-24T11:19:02;10.77;;;4.13;;
14203;SDS011;7185;51.854;6.622;2023-04-24T11:21:40;9.25;;;3.90;;
14203;SDS011;7185;51.854;6.622;2023-04-24T11:27:11;13.43;;;4.20;;
14203;SDS011;7185;51.854;6.622;2023-04-24T11:29:45;10.88;;;3.72;;
14203;SDS011;7185;51.854;6.622;2023-04-24T11:32:25;11.90;;;3.50;;
14203;SDS011;7185;51.854;6.622;2023-04-24T11:34:58;10.55;;;4.78;;
14203;SDS011;7185;51.854;6.622;2023-04-24T11:37:35;9.90;;;3.55;;
14203;SDS011;7185;51.854;6.622;2023-04-24T11:40:08;11.75;;;3.63;;
14203;SDS011;7185;51.854;6.622;2023-04-24T11:42:41;12.70;;;3.90;;
14203;SDS011;7185;51.854;6.622;2023-04-24T11:45:15;10.32;;;4.03;;
14203;SDS011;7185;51.854;6.622;2023-04-24T11:47:49;12.93;;;3.55;;
14203;SDS011;7185;51.854;6.622;2023-04-24T11:50:21;7.13;;;2.88;;
14203;SDS011;7185;51.854;6.622;2023-04-24T11:52:57;6.07;;;2.75;;
14203;SDS011;7185;51.854;6.622;2023-04-24T11:55:30;7.53;;;2.50;;
14203;SDS011;7185;51.854;6.622;2023-04-24T11:58:01;8.25;;;2.20;;
14203;SDS011;7185;51.854;6.622;2023-04-24T12:00:33;10.43;;;3.10;;
14203;SDS011;7185;51.854;6.622;2023-04-24T12:03:05;9.00;;;2.58;;
14203;SDS011;7185;51.854;6.622;2023-04-24T12:05:38;8.10;;;3.10;;
14203;SDS011;7185;51.854;6.622;2023-04-24T12:08:12;10.60;;;2.60;;
14203;SDS011;7185;51.854;6.622;2023-04-24T12:13:31;14.48;;;3.17;;
14203;SDS011;7185;51.854;6.622;2023-04-24T12:16:03;6.55;;;2.42;;
14203;SDS011;7185;51.854;6.622;2023-04-24T12:18:40;10.18;;;2.75;;
14203;SDS011;7185;51.854;6.622;2023-04-24T12:23:56;8.85;;;2.70;;
14203;SDS011;7185;51.854;6.622;2023-04-24T12:26:28;4.15;;;2.00;;
14203;SDS011;7185;51.854;6.622;2023-04-24T12:29:01;5.18;;;1.98;;
14203;SDS011;7185;51.854;6.622;2023-04-24T12:31:34;6.25;;;1.80;;
14203;SDS011;7185;51.854;6.622;2023-04-24T12:34:16;6.60;;;1.83;;
14203;SDS011;7185;51.854;6.622;2023-04-24T12:36:49;5.75;;;2.33;;
14203;SDS011;7185;51.854;6.622;2023-04-24T12:39:22;6.20;;;1.50;;
14203;SDS011;7185;51.854;6.622;2023-04-24T12:41:56;6.95;;;1.58;;
14203;SDS011;7185;51.854;6.622;2023-04-24T12:44:30;5.57;;;1.60;;
14203;SDS011;7185;51.854;6.622;2023-04-24T12:47:04;6.28;;;1.70;;
14203;SDS011;7185;51.854;6.622;2023-04-24T12:49:35;6.10;;;1.75;;
14203;SDS011;7185;51.854;6.622;2023-04-24T12:52:07;4.95;;;2.30;;
14203;SDS011;7185;51.854;6.622;2023-04-24T12:54:40;3.55;;;1.52;;
14203;SDS011;7185;51.854;6.622;2023-04-24T12:57:12;5.88;;;1.80;;
14203;SDS011;7185;51.854;6.622;2023-04-24T12:59:43;4.93;;;1.73;;
14203;SDS011;7185;51.854;6.622;2023-04-24T13:02:16;5.63;;;1.70;;
14203;SDS011;7185;51.854;6.622;2023-04-24T13:04:48;7.43;;;1.65;;
14203;SDS011;7185;51.854;6.622;2023-04-24T13:07:20;8.20;;;2.05;;
14203;SDS011;7185;51.854;6.622;2023-04-24T13:09:54;4.53;;;1.63;;
14203;SDS011;7185;51.854;6.622;2023-04-24T13:12:27;5.38;;;1.63;;
14203;SDS011;7185;51.854;6.622;2023-04-24T13:14:59;5.68;;;1.80;;
14203;SDS011;7185;51.854;6.622;2023-04-24T13:17:30;4.60;;;1.77;;
14203;SDS011;7185;51.854;6.622;2023-04-24T13:20:02;5.60;;;2.15;;
14203;SDS011;7185;51.854;6.622;2023-04-24T13:22:35;5.20;;;1.85;;
14203;SDS011;7185;51.854;6.622;2023-04-24T13:25:08;6.85;;;1.70;;
14203;SDS011;7185;51.854;6.622;2023-04-24T13:27:40;4.53;;;2.00;;
14203;SDS011;7185;51.854;6.622;2023-04-24T13:30:11;5.72;;;2.03;;
14203;SDS011;7185;51.854;6.622;2023-04-24T13:32:43;5.47;;;2.20;;
14203;SDS011;7185;51.854;6.622;2023-04-24T13:35:15;7.00;;;2.78;;
14203;SDS011;7185;51.854;6.622;2023-04-24T13:37:47;5.10;;;2.40;;
14203;SDS011;7185;51.854;6.622;2023-04-24T13:40:20;5.40;;;2.55;;
14203;SDS011;7185;51.854;6.622;2023-04-24T13:42:51;4.43;;;1.67;;
14203;SDS011;7185;51.854;6.622;2023-04-24T13:45:23;3.67;;;1.85;;
14203;SDS011;7185;51.854;6.622;2023-04-24T13:47:55;5.78;;;1.80;;
14203;SDS011;7185;51.854;6.622;2023-04-24T13:50:26;6.30;;;2.25;;
14203;SDS011;7185;51.854;6.622;2023-04-24T13:52:58;6.95;;;2.03;;
14203;SDS011;7185;51.854;6.622;2023-04-24T13:55:32;5.05;;;1.90;;
14203;SDS011;7185;51.854;6.622;2023-04-24T13:58:04;4.93;;;1.70;;
14203;SDS011;7185;51.854;6.622;2023-04-24T14:00:36;5.05;;;2.40;;
14203;SDS011;7185;51.854;6.622;2023-04-24T14:03:08;5.03;;;1.70;;
14203;SDS011;7185;51.854;6.622;2023-04-24T14:05:40;4.28;;;1.60;;
14203;SDS011;7185;51.854;6.622;2023-04-24T14:08:11;4.50;;;1.73;;
14203;SDS011;7185;51.854;6.622;2023-04-24T14:10:44;4.90;;;1.60;;
14203;SDS011;7185;51.854;6.622;2023-04-24T14:13:16;5.63;;;1.80;;
14203;SDS011;7185;51.854;6.622;2023-04-24T14:15:48;7.57;;;2.40;;
14203;SDS011;7185;51.854;6.622;2023-04-24T14:18:20;5.95;;;1.75;;
14203;SDS011;7185;51.854;6.622;2023-04-24T14:20:51;4.35;;;1.70;;
14203;SDS011;7185;51.854;6.622;2023-04-24T14:23:23;3.50;;;1.77;;
14203;SDS011;7185;51.854;6.622;2023-04-24T14:25:56;6.28;;;1.70;;
14203;SDS011;7185;51.854;6.622;2023-04-24T14:28:28;5.32;;;1.80;;
14203;SDS011;7185;51.854;6.622;2023-04-24T14:30:59;6.95;;;1.92;;
14203;SDS011;7185;51.854;6.622;2023-04-24T14:33:31;7.68;;;2.97;;
14203;SDS011;7185;51.854;6.622;2023-04-24T14:36:03;8.07;;;2.58;;
14203;SDS011;7185;51.854;6.622;2023-04-24T14:38:35;6.47;;;1.98;;
14203;SDS011;7185;51.854;6.622;2023-04-24T14:41:08;7.15;;;1.67;;
14203;SDS011;7185;51.854;6.622;2023-04-24T14:43:41;6.60;;;1.90;;
14203;SDS011;7185;51.854;6.622;2023-04-24T14:46:13;8.13;;;1.88;;
14203;SDS011;7185;51.854;6.622;2023-04-24T14:48:45;10.30;;;1.80;;
14203;SDS011;7185;51.854;6.622;2023-04-24T14:51:16;7.38;;;2.22;;
14203;SDS011;7185;51.854;6.622;2023-04-24T14:53:48;6.78;;;2.30;;
14203;SDS011;7185;51.854;6.622;2023-04-24T14:56:21;10.50;;;2.25;;
14203;SDS011;7185;51.854;6.622;2023-04-24T14:58:52;8.10;;;2.45;;
14203;SDS011;7185;51.854;6.622;2023-04-24T15:01:24;5.13;;;1.70;;
14203;SDS011;7185;51.854;6.622;2023-04-24T15:03:56;6.90;;;2.35;;
14203;SDS011;7185;51.854;6.622;2023-04-24T15:06:27;10.35;;;2.45;;
14203;SDS011;7185;51.854;6.622;2023-04-24T15:09:01;5.35;;;1.75;;
14203;SDS011;7185;51.854;6.622;2023-04-24T15:11:37;6.45;;;2.10;;
14203;SDS011;7185;51.854;6.622;2023-04-24T15:14:09;7.38;;;2.17;;
14203;SDS011;7185;51.854;6.622;2023-04-24T15:16:41;7.85;;;2.28;;
14203;SDS011;7185;51.854;6.622;2023-04-24T15:19:13;7.30;;;2.08;;
14203;SDS011;7185;51.854;6.622;2023-04-24T15:21:44;13.95;;;2.50;;
14203;SDS011;7185;51.854;6.622;2023-04-24T15:24:16;10.38;;;2.42;;
14203;SDS011;7185;51.854;6.622;2023-04-24T15:26:49;8.05;;;2.42;;
14203;SDS011;7185;51.854;6.622;2023-04-24T15:29:21;9.68;;;2.45;;
14203;SDS011;7185;51.854;6.622;2023-04-24T15:31:52;7.20;;;2.50;;
14203;SDS011;7185;51.854;6.622;2023-04-24T15:34:24;7.93;;;2.33;;
14203;SDS011;7185;51.854;6.622;2023-04-24T15:36:55;11.43;;;2.88;;
14203;SDS011;7185;51.854;6.622;2023-04-24T15:39:27;16.65;;;3.05;;
14203;SDS011;7185;51.854;6.622;2023-04-24T15:42:00;11.15;;;2.92;;
14203;SDS011;7185;51.854;6.622;2023-04-24T15:44:32;9.10;;;2.90;;